sensor_id;sensor_type;location;lat;lon;timestamp;pressure;altitude;pressure_sealevel;temperature;humidity
70206;BME280;57593;55.896;37.396;2022-11-15T00:00:20;100046.44;;;-0.27;100.00
70206;BME280;57593;55.896;37.396;2022-11-15T00:01:15;100048.22;;;-0.32;100.00
70206;BME280;57593;55.896;37.396;2022-11-15T00:02:05;100048.81;;;-0.25;100.00
70206;BME280;57593;55.896;37.396;2022-11-15T00:02:55;100048.50;;;-0.29;100.00
70206;BME280;57593;55.896;37.396;2022-11-15T00:03:44;100044.00;;;-0.16;100.00
70206;BME280;57593;55.896;37.396;2022-11-15T00:04:34;100040.72;;;-0.07;100.00
70206;BME280;57593;55.896;37.396;2022-11-15T00:05:23;100034.81;;;-0.02;100.00
70206;BME280;57593;55.896;37.396;2022-11-15T00:06:12;100039.81;;;0.05;100.00
70206;BME280;57593;55.896;37.396;2022-11-15T00:07:02;100038.97;;;-0.01;100.00
70206;BME280;57593;55.896;37.396;2022-11-15T00:07:51;100040.78;;;-0.02;100.00
70206;BME280;57593;55.896;37.396;2022-11-15T00:08:40;100043.41;;;-0.02;100.00
70206;BME280;57593;55.896;37.396;2022-11-15T00:09:29;100036.56;;;-0.08;100.00
70206;BME280;57593;55.896;37.396;2022-11-15T00:10:19;100032.63;;;-0.10;100.00
70206;BME280;57593;55.896;37.396;2022-11-15T00:11:10;100029.66;;;-0.19;100.00
70206;BME280;57593;55.896;37.396;2022-11-15T00:11:59;100032.34;;;-0.14;100.00
70206;BME280;57593;55.896;37.396;2022-11-15T00:12:48;100024.78;;;-0.15;100.00
70206;BME280;57593;55.896;37.396;2022-11-15T00:13:39;100025.69;;;-0.05;100.00
70206;BME280;57593;55.896;37.396;2022-11-15T00:14:28;100031.72;;;0.01;100.00
70206;BME280;57593;55.896;37.396;2022-11-15T00:15:17;100024.38;;;-0.07;100.00
70206;BME280;57593;55.896;37.396;2022-11-15T00:16:08;100022.19;;;-0.15;100.00
70206;BME280;57593;55.896;37.396;2022-11-15T00:16:57;100026.47;;;-0.26;100.00
70206;BME280;57593;55.896;37.396;2022-11-15T00:17:49;100023.66;;;-0.25;100.00
70206;BME280;57593;55.896;37.396;2022-11-15T00:18:38;100020.09;;;-0.19;100.00
70206;BME280;57593;55.896;37.396;2022-11-15T00:19:27;100016.88;;;-0.26;100.00
70206;BME280;57593;55.896;37.396;2022-11-15T00:20:17;100024.84;;;-0.32;100.00
70206;BME280;57593;55.896;37.396;2022-11-15T00:21:10;100030.72;;;-0.20;100.00
70206;BME280;57593;55.896;37.396;2022-11-15T00:22:00;100035.53;;;-0.29;100.00
70206;BME280;57593;55.896;37.396;2022-11-15T00:22:49;100031.59;;;-0.31;100.00
70206;BME280;57593;55.896;37.396;2022-11-15T00:23:39;100027.94;;;-0.35;100.00
70206;BME280;57593;55.896;37.396;2022-11-15T00:24:28;100029.38;;;-0.45;100.00
70206;BME280;57593;55.896;37.396;2022-11-15T00:25:17;100025.19;;;-0.46;100.00
70206;BME280;57593;55.896;37.396;2022-11-15T00:26:07;100028.75;;;-0.52;100.00
70206;BME280;57593;55.896;37.396;2022-11-15T00:26:56;100016.69;;;-0.41;100.00
70206;BME280;57593;55.896;37.396;2022-11-15T00:27:46;100012.41;;;-0.30;100.00
70206;BME280;57593;55.896;37.396;2022-11-15T00:28:35;100019.56;;;-0.38;100.00
70206;BME280;57593;55.896;37.396;2022-11-15T00:29:24;100012.69;;;-0.27;100.00
70206;BME280;57593;55.896;37.396;2022-11-15T00:30:14;100009.91;;;-0.42;100.00
70206;BME280;57593;55.896;37.396;2022-11-15T00:31:05;100012.75;;;-0.44;100.00
70206;BME280;57593;55.896;37.396;2022-11-15T00:31:55;100018.03;;;-0.39;100.00
70206;BME280;57593;55.896;37.396;2022-11-15T00:32:47;100005.69;;;-0.48;100.00
70206;BME280;57593;55.896;37.396;2022-11-15T00:33:36;100019.13;;;-0.51;100.00
70206;BME280;57593;55.896;37.396;2022-11-15T00:34:25;100015.75;;;-0.52;100.00
70206;BME280;57593;55.896;37.396;2022-11-15T00:35:14;100022.47;;;-0.56;100.00
70206;BME280;57593;55.896;37.396;2022-11-15T00:36:08;100017.81;;;-0.54;100.00
70206;BME280;57593;55.896;37.396;2022-11-15T00:36:58;100015.22;;;-0.54;100.00
70206;BME280;57593;55.896;37.396;2022-11-15T00:37:48;100008.53;;;-0.50;100.00
70206;BME280;57593;55.896;37.396;2022-11-15T00:38:39;100022.38;;;-0.61;100.00
70206;BME280;57593;55.896;37.396;2022-11-15T00:39:29;100013.13;;;-0.57;100.00
70206;BME280;57593;55.896;37.396;2022-11-15T00:40:18;100002.56;;;-0.50;100.00
70206;BME280;57593;55.896;37.396;2022-11-15T00:41:08;100002.59;;;-0.45;100.00
70206;BME280;57593;55.896;37.396;2022-11-15T00:41:57;100001.28;;;-0.48;100.00
70206;BME280;57593;55.896;37.396;2022-11-15T00:42:46;100001.66;;;-0.39;100.00
70206;BME280;57593;55.896;37.396;2022-11-15T00:43:36;100001.28;;;-0.48;100.00
70206;BME280;57593;55.896;37.396;2022-11-15T00:44:25;99996.22;;;-0.38;100.00
70206;BME280;57593;55.896;37.396;2022-11-15T00:45:14;99994.81;;;-0.45;100.00
70206;BME280;57593;55.896;37.396;2022-11-15T00:46:03;99999.84;;;-0.39;100.00
70206;BME280;57593;55.896;37.396;2022-11-15T00:46:53;99998.56;;;-0.36;100.00
70206;BME280;57593;55.896;37.396;2022-11-15T00:47:44;100003.13;;;-0.26;100.00
70206;BME280;57593;55.896;37.396;2022-11-15T00:48:34;100005.78;;;-0.21;100.00
70206;BME280;57593;55.896;37.396;2022-11-15T00:49:23;99995.81;;;-0.29;100.00
70206;BME280;57593;55.896;37.396;2022-11-15T00:50:13;99994.34;;;-0.42;100.00
70206;BME280;57593;55.896;37.396;2022-11-15T00:51:02;99983.66;;;-0.46;100.00
70206;BME280;57593;55.896;37.396;2022-11-15T00:51:51;99998.13;;;-0.50;100.00
70206;BME280;57593;55.896;37.396;2022-11-15T00:52:40;99997.66;;;-0.47;100.00
70206;BME280;57593;55.896;37.396;2022-11-15T00:53:29;99997.66;;;-0.47;100.00
70206;BME280;57593;55.896;37.396;2022-11-15T00:54:18;99997.75;;;-0.42;100.00
70206;BME280;57593;55.896;37.396;2022-11-15T00:55:18;99992.72;;;-0.48;100.00
70206;BME280;57593;55.896;37.396;2022-11-15T00:56:07;99994.03;;;-0.46;100.00
70206;BME280;57593;55.896;37.396;2022-11-15T00:56:57;99993.28;;;-0.46;100.00
70206;BME280;57593;55.896;37.396;2022-11-15T00:57:46;99993.50;;;-0.48;100.00
70206;BME280;57593;55.896;37.396;2022-11-15T00:58:35;99991.16;;;-0.49;100.00
70206;BME280;57593;55.896;37.396;2022-11-15T00:59:25;99987.03;;;-0.45;100.00
70206;BME280;57593;55.896;37.396;2022-11-15T01:00:14;99992.94;;;-0.50;100.00
70206;BME280;57593;55.896;37.396;2022-11-15T01:01:12;99990.41;;;-0.67;100.00
70206;BME280;57593;55.896;37.396;2022-11-15T01:02:02;99982.03;;;-0.52;100.00
70206;BME280;57593;55.896;37.396;2022-11-15T01:02:51;99985.47;;;-0.46;100.00
70206;BME280;57593;55.896;37.396;2022-11-15T01:03:41;99982.16;;;-0.42;100.00
70206;BME280;57593;55.896;37.396;2022-11-15T01:04:30;99982.69;;;-0.40;100.00
70206;BME280;57593;55.896;37.396;2022-11-15T01:05:20;99985.47;;;-0.46;100.00
70206;BME280;57593;55.896;37.396;2022-11-15T01:06:09;99985.31;;;-0.40;100.00
70206;BME280;57593;55.896;37.396;2022-11-15T01:06:58;99991.34;;;-0.56;100.00
70206;BME280;57593;55.896;37.396;2022-11-15T01:07:51;99983.56;;;-0.56;100.00
70206;BME280;57593;55.896;37.396;2022-11-15T01:08:41;99986.69;;;-0.54;100.00
70206;BME280;57593;55.896;37.396;2022-11-15T01:09:30;99983.00;;;-0.58;100.00
70206;BME280;57593;55.896;37.396;2022-11-15T01:10:19;99979.88;;;-0.60;100.00
70206;BME280;57593;55.896;37.396;2022-11-15T01:11:11;99983.88;;;-0.69;100.00
70206;BME280;57593;55.896;37.396;2022-11-15T01:12:01;99974.44;;;-0.59;100.00
70206;BME280;57593;55.896;37.396;2022-11-15T01:12:50;99968.28;;;-0.52;100.00
70206;BME280;57593;55.896;37.396;2022-11-15T01:13:40;99963.56;;;-0.56;100.00
70206;BME280;57593;55.896;37.396;2022-11-15T01:14:29;99972.94;;;-0.55;100.00
70206;BME280;57593;55.896;37.396;2022-11-15T01:15:18;99968.53;;;-0.54;100.00
70206;BME280;57593;55.896;37.396;2022-11-15T01:16:14;99959.88;;;-0.60;100.00
70206;BME280;57593;55.896;37.396;2022-11-15T01:17:05;99964.81;;;-0.58;100.00
70206;BME280;57593;55.896;37.396;2022-11-15T01:17:55;99969.69;;;-0.45;100.00
70206;BME280;57593;55.896;37.396;2022-11-15T01:18:45;99966.94;;;-0.55;100.00
70206;BME280;57593;55.896;37.396;2022-11-15T01:19:35;99971.78;;;-0.64;100.00
70206;BME280;57593;55.896;37.396;2022-11-15T01:20:24;99961.28;;;-0.52;100.00
70206;BME280;57593;55.896;37.396;2022-11-15T01:21:15;99967.84;;;-0.44;100.00
70206;BME280;57593;55.896;37.396;2022-11-15T01:22:05;99960.03;;;-0.49;100.00
70206;BME280;57593;55.896;37.396;2022-11-15T01:22:54;99961.41;;;-0.42;100.00
70206;BME280;57593;55.896;37.396;2022-11-15T01:23:43;99964.34;;;-0.55;100.00
70206;BME280;57593;55.896;37.396;2022-11-15T01:24:33;99965.56;;;-0.63;100.00
70206;BME280;57593;55.896;37.396;2022-11-15T01:25:22;99963.75;;;-0.62;100.00
70206;BME280;57593;55.896;37.396;2022-11-15T01:26:13;99958.56;;;-0.62;100.00
70206;BME280;57593;55.896;37.396;2022-11-15T01:27:03;99957.41;;;-0.71;100.00
70206;BME280;57593;55.896;37.396;2022-11-15T01:27:52;99949.22;;;-0.63;100.00
70206;BME280;57593;55.896;37.396;2022-11-15T01:28:42;99951.19;;;-0.48;100.00
70206;BME280;57593;55.896;37.396;2022-11-15T01:29:32;99954.63;;;-0.43;100.00
70206;BME280;57593;55.896;37.396;2022-11-15T01:30:21;99954.44;;;-0.58;100.00
70206;BME280;57593;55.896;37.396;2022-11-15T01:31:16;99956.03;;;-0.57;100.00
70206;BME280;57593;55.896;37.396;2022-11-15T01:32:06;99958.91;;;-0.53;100.00
70206;BME280;57593;55.896;37.396;2022-11-15T01:32:55;99954.94;;;-0.61;100.00
70206;BME280;57593;55.896;37.396;2022-11-15T01:33:44;99958.91;;;-0.76;100.00
70206;BME280;57593;55.896;37.396;2022-11-15T01:34:34;99961.03;;;-0.73;100.00
70206;BME280;57593;55.896;37.396;2022-11-15T01:35:23;99960.84;;;-0.66;100.00
70206;BME280;57593;55.896;37.396;2022-11-15T01:36:15;99953.06;;;-0.66;100.00
70206;BME280;57593;55.896;37.396;2022-11-15T01:37:05;99959.16;;;-0.55;100.00
70206;BME280;57593;55.896;37.396;2022-11-15T01:37:54;99963.34;;;-0.54;100.00
70206;BME280;57593;55.896;37.396;2022-11-15T01:38:43;99964.81;;;-0.58;100.00
70206;BME280;57593;55.896;37.396;2022-11-15T01:39:33;99957.31;;;-0.77;100.00
70206;BME280;57593;55.896;37.396;2022-11-15T01:40:22;99957.75;;;-0.63;100.00
70206;BME280;57593;55.896;37.396;2022-11-15T01:41:20;99953.13;;;-0.61;100.00
70206;BME280;57593;55.896;37.396;2022-11-15T01:42:12;99964.72;;;-0.68;100.00
70206;BME280;57593;55.896;37.396;2022-11-15T01:43:29;99964.72;;;-0.68;100.00
70206;BME280;57593;55.896;37.396;2022-11-15T01:45:19;99963.84;;;-0.74;100.00
70206;BME280;57593;55.896;37.396;2022-11-15T01:47:01;99962.31;;;-0.53;100.00
70206;BME280;57593;55.896;37.396;2022-11-15T01:47:52;99960.03;;;-0.49;100.00
70206;BME280;57593;55.896;37.396;2022-11-15T01:48:43;99954.59;;;-0.48;100.00
70206;BME280;57593;55.896;37.396;2022-11-15T01:49:35;99962.78;;;-0.34;100.00
70206;BME280;57593;55.896;37.396;2022-11-15T01:50:30;99963.56;;;-0.33;100.00
70206;BME280;57593;55.896;37.396;2022-11-15T01:51:22;99961.56;;;-0.48;100.00
70206;BME280;57593;55.896;37.396;2022-11-15T01:52:17;99955.25;;;-0.58;100.00
70206;BME280;57593;55.896;37.396;2022-11-15T01:53:08;99953.91;;;-0.60;100.00
70206;BME280;57593;55.896;37.396;2022-11-15T01:54:04;99951.19;;;-0.70;100.00
70206;BME280;57593;55.896;37.396;2022-11-15T01:55:05;99959.34;;;-0.62;100.00
70206;BME280;57593;55.896;37.396;2022-11-15T01:55:56;99954.78;;;-0.55;100.00
70206;BME280;57593;55.896;37.396;2022-11-15T01:57:00;99956.84;;;-0.51;100.00
70206;BME280;57593;55.896;37.396;2022-11-15T01:57:53;99958.31;;;-0.39;100.00
70206;BME280;57593;55.896;37.396;2022-11-15T01:58:44;99953.78;;;-0.26;100.00
70206;BME280;57593;55.896;37.396;2022-11-15T01:59:35;99964.47;;;-0.23;100.00
70206;BME280;57593;55.896;37.396;2022-11-15T02:00:25;99964.19;;;-0.26;100.00
70206;BME280;57593;55.896;37.396;2022-11-15T02:01:15;99960.44;;;-0.35;100.00
70206;BME280;57593;55.896;37.396;2022-11-15T02:02:04;99961.50;;;-0.31;100.00
70206;BME280;57593;55.896;37.396;2022-11-15T02:02:53;99953.28;;;-0.45;100.00
70206;BME280;57593;55.896;37.396;2022-11-15T02:03:55;99951.56;;;-0.40;100.00
70206;BME280;57593;55.896;37.396;2022-11-15T02:04:47;99957.16;;;-0.26;100.00
70206;BME280;57593;55.896;37.396;2022-11-15T02:05:37;99961.50;;;-0.31;100.00
70206;BME280;57593;55.896;37.396;2022-11-15T02:06:26;99963.75;;;-0.40;100.00
70206;BME280;57593;55.896;37.396;2022-11-15T02:07:17;99957.41;;;-0.27;100.00
70206;BME280;57593;55.896;37.396;2022-11-15T02:08:09;99952.16;;;-0.32;100.00
70206;BME280;57593;55.896;37.396;2022-11-15T02:09:09;99961.50;;;-0.53;100.00
70206;BME280;57593;55.896;37.396;2022-11-15T02:10:06;99955.50;;;-0.37;100.00
70206;BME280;57593;55.896;37.396;2022-11-15T02:10:56;99955.53;;;-0.32;100.00
70206;BME280;57593;55.896;37.396;2022-11-15T02:11:47;99944.97;;;-0.47;100.00
70206;BME280;57593;55.896;37.396;2022-11-15T02:12:37;99951.59;;;-0.34;100.00
70206;BME280;57593;55.896;37.396;2022-11-15T02:13:27;99943.25;;;-0.42;100.00
70206;BME280;57593;55.896;37.396;2022-11-15T02:14:18;99940.97;;;-0.33;100.00
70206;BME280;57593;55.896;37.396;2022-11-15T02:15:10;99942.59;;;-0.27;100.00
70206;BME280;57593;55.896;37.396;2022-11-15T02:16:35;99937.91;;;-0.30;100.00
70206;BME280;57593;55.896;37.396;2022-11-15T02:18:36;99948.59;;;-0.26;100.00
70206;BME280;57593;55.896;37.396;2022-11-15T02:20:52;99949.69;;;-0.44;100.00
70206;BME280;57593;55.896;37.396;2022-11-15T02:23:36;99949.91;;;-0.24;100.00
70206;BME280;57593;55.896;37.396;2022-11-15T02:24:45;99950.63;;;-0.28;100.00
70206;BME280;57593;55.896;37.396;2022-11-15T02:28:04;99934.50;;;-0.35;100.00
70206;BME280;57593;55.896;37.396;2022-11-15T02:29:10;99948.25;;;-0.57;100.00
70206;BME280;57593;55.896;37.396;2022-11-15T02:30:30;99940.09;;;-0.66;100.00
70206;BME280;57593;55.896;37.396;2022-11-15T02:31:39;99940.03;;;-0.71;100.00
70206;BME280;57593;55.896;37.396;2022-11-15T02:32:40;99941.47;;;-0.58;100.00
70206;BME280;57593;55.896;37.396;2022-11-15T02:33:39;99940.56;;;-0.47;100.00
70206;BME280;57593;55.896;37.396;2022-11-15T02:37:07;99948.44;;;-0.42;100.00
70206;BME280;57593;55.896;37.396;2022-11-15T02:38:19;99937.44;;;-0.49;100.00
70206;BME280;57593;55.896;37.396;2022-11-15T02:40:07;99937.44;;;-0.49;100.00
70206;BME280;57593;55.896;37.396;2022-11-15T02:41:04;99934.41;;;-0.63;100.00
70206;BME280;57593;55.896;37.396;2022-11-15T02:42:10;99941.41;;;-0.41;100.00
70206;BME280;57593;55.896;37.396;2022-11-15T02:43:40;99941.00;;;-0.55;100.00
70206;BME280;57593;55.896;37.396;2022-11-15T02:44:46;99931.72;;;-0.73;100.00
70206;BME280;57593;55.896;37.396;2022-11-15T02:45:40;99926.59;;;-0.68;100.00
70206;BME280;57593;55.896;37.396;2022-11-15T02:47:43;99927.53;;;-0.52;100.00
70206;BME280;57593;55.896;37.396;2022-11-15T02:48:35;99933.22;;;-0.55;100.00
70206;BME280;57593;55.896;37.396;2022-11-15T02:49:28;99925.91;;;-0.58;100.00
70206;BME280;57593;55.896;37.396;2022-11-15T02:50:21;99929.94;;;-0.67;100.00
70206;BME280;57593;55.896;37.396;2022-11-15T02:51:13;99932.97;;;-0.76;100.00
70206;BME280;57593;55.896;37.396;2022-11-15T02:52:03;99924.66;;;-0.78;100.00
70206;BME280;57593;55.896;37.396;2022-11-15T02:52:52;99931.88;;;-0.80;100.00
70206;BME280;57593;55.896;37.396;2022-11-15T02:53:41;99927.78;;;-0.76;100.00
70206;BME280;57593;55.896;37.396;2022-11-15T02:54:32;99930.13;;;-0.74;100.00
70206;BME280;57593;55.896;37.396;2022-11-15T02:55:36;99935.63;;;-0.70;100.00
70206;BME280;57593;55.896;37.396;2022-11-15T02:56:27;99926.69;;;-0.80;100.00
70206;BME280;57593;55.896;37.396;2022-11-15T02:57:18;99929.84;;;-0.78;100.00
70206;BME280;57593;55.896;37.396;2022-11-15T03:03:00;99922.00;;;-0.61;100.00
70206;BME280;57593;55.896;37.396;2022-11-15T03:05:29;99913.97;;;-0.59;100.00
70206;BME280;57593;55.896;37.396;2022-11-15T03:07:18;99908.28;;;-0.78;100.00
70206;BME280;57593;55.896;37.396;2022-11-15T03:08:27;99900.22;;;-0.82;100.00
70206;BME280;57593;55.896;37.396;2022-11-15T03:11:29;99887.78;;;-0.58;100.00
70206;BME280;57593;55.896;37.396;2022-11-15T03:12:30;99904.13;;;-0.57;100.00
70206;BME280;57593;55.896;37.396;2022-11-15T03:13:39;99906.91;;;-0.64;100.00
70206;BME280;57593;55.896;37.396;2022-11-15T03:14:41;99907.22;;;-0.60;100.00
70206;BME280;57593;55.896;37.396;2022-11-15T03:15:44;99898.91;;;-0.62;100.00
70206;BME280;57593;55.896;37.396;2022-11-15T03:16:45;99904.25;;;-0.69;100.00
70206;BME280;57593;55.896;37.396;2022-11-15T03:17:41;99906.50;;;-0.78;100.00
70206;BME280;57593;55.896;37.396;2022-11-15T03:18:41;99898.72;;;-0.78;100.00
70206;BME280;57593;55.896;37.396;2022-11-15T03:19:42;99899.38;;;-0.65;100.00
70206;BME280;57593;55.896;37.396;2022-11-15T03:20:36;99894.47;;;-0.62;100.00
70206;BME280;57593;55.896;37.396;2022-11-15T03:21:28;99901.00;;;-0.59;100.00
70206;BME280;57593;55.896;37.396;2022-11-15T03:22:20;99903.59;;;-0.59;100.00
70206;BME280;57593;55.896;37.396;2022-11-15T03:23:12;99900.63;;;-0.68;100.00
70206;BME280;57593;55.896;37.396;2022-11-15T03:24:03;99896.94;;;-0.72;100.00
70206;BME280;57593;55.896;37.396;2022-11-15T03:25:00;99907.03;;;-0.76;100.00
70206;BME280;57593;55.896;37.396;2022-11-15T03:25:51;99899.00;;;-0.74;100.00
70206;BME280;57593;55.896;37.396;2022-11-15T03:26:44;99898.22;;;-0.75;100.00
70206;BME280;57593;55.896;37.396;2022-11-15T03:27:39;99911.91;;;-0.79;100.00
70206;BME280;57593;55.896;37.396;2022-11-15T03:28:55;99908.72;;;-0.86;100.00
70206;BME280;57593;55.896;37.396;2022-11-15T03:29:52;99901.72;;;-0.86;100.00
70206;BME280;57593;55.896;37.396;2022-11-15T03:30:46;99900.22;;;-0.82;100.00
70206;BME280;57593;55.896;37.396;2022-11-15T03:31:40;99900.34;;;-0.71;100.00
70206;BME280;57593;55.896;37.396;2022-11-15T03:32:41;99896.94;;;-0.72;100.00
70206;BME280;57593;55.896;37.396;2022-11-15T03:33:32;99894.19;;;-0.65;100.00
70206;BME280;57593;55.896;37.396;2022-11-15T03:34:28;99898.19;;;-0.58;100.00
70206;BME280;57593;55.896;37.396;2022-11-15T03:35:22;99893.56;;;-0.50;100.00
70206;BME280;57593;55.896;37.396;2022-11-15T03:36:11;99896.44;;;-0.47;100.00
70206;BME280;57593;55.896;37.396;2022-11-15T03:37:01;99895.44;;;-0.46;100.00
70206;BME280;57593;55.896;37.396;2022-11-15T03:38:21;99892.25;;;-0.53;100.00
70206;BME280;57593;55.896;37.396;2022-11-15T03:39:12;99893.47;;;-0.61;100.00
70206;BME280;57593;55.896;37.396;2022-11-15T03:40:03;99895.81;;;-0.59;100.00
70206;BME280;57593;55.896;37.396;2022-11-15T03:41:00;99892.06;;;-0.46;100.00
70206;BME280;57593;55.896;37.396;2022-11-15T03:43:04;99896.94;;;-0.50;100.00
70206;BME280;57593;55.896;37.396;2022-11-15T03:44:13;99896.84;;;-0.60;100.00
70206;BME280;57593;55.896;37.396;2022-11-15T03:45:23;99903.91;;;-0.56;100.00
70206;BME280;57593;55.896;37.396;2022-11-15T03:46:27;99897.63;;;-0.60;100.00
70206;BME280;57593;55.896;37.396;2022-11-15T03:47:53;99901.25;;;-0.61;100.00
70206;BME280;57593;55.896;37.396;2022-11-15T03:48:48;99896.19;;;-0.73;100.00
70206;BME280;57593;55.896;37.396;2022-11-15T03:49:44;99893.09;;;-0.69;100.00
70206;BME280;57593;55.896;37.396;2022-11-15T03:50:34;99898.56;;;-0.66;100.00
70206;BME280;57593;55.896;37.396;2022-11-15T03:51:23;99889.81;;;-0.60;100.00
70206;BME280;57593;55.896;37.396;2022-11-15T03:52:12;99897.63;;;-0.60;100.00
70206;BME280;57593;55.896;37.396;2022-11-15T03:53:06;99893.03;;;-0.75;100.00
70206;BME280;57593;55.896;37.396;2022-11-15T03:53:55;99892.66;;;-0.83;100.00
70206;BME280;57593;55.896;37.396;2022-11-15T03:54:52;99886.47;;;-0.82;100.00
70206;BME280;57593;55.896;37.396;2022-11-15T03:55:42;99887.25;;;-0.82;100.00
70206;BME280;57593;55.896;37.396;2022-11-15T03:56:31;99878.78;;;-0.72;100.00
70206;BME280;57593;55.896;37.396;2022-11-15T03:57:20;99879.94;;;-0.63;100.00
70206;BME280;57593;55.896;37.396;2022-11-15T03:58:10;99880.78;;;-0.57;100.00
70206;BME280;57593;55.896;37.396;2022-11-15T03:58:59;99879.81;;;-0.51;100.00
70206;BME280;57593;55.896;37.396;2022-11-15T03:59:48;99884.19;;;-0.51;100.00
70206;BME280;57593;55.896;37.396;2022-11-15T04:00:37;99886.88;;;-0.46;100.00
70206;BME280;57593;55.896;37.396;2022-11-15T04:01:27;99878.16;;;-0.62;100.00
70206;BME280;57593;55.896;37.396;2022-11-15T04:02:16;99879.00;;;-0.51;100.00
70206;BME280;57593;55.896;37.396;2022-11-15T04:03:05;99883.47;;;-0.47;100.00
70206;BME280;57593;55.896;37.396;2022-11-15T04:03:56;99875.44;;;-0.45;100.00
70206;BME280;57593;55.896;37.396;2022-11-15T04:04:45;99883.38;;;-0.57;100.00
70206;BME280;57593;55.896;37.396;2022-11-15T04:05:34;99886.09;;;-0.69;100.00
70206;BME280;57593;55.896;37.396;2022-11-15T04:06:23;99876.16;;;-0.77;100.00
70206;BME280;57593;55.896;37.396;2022-11-15T04:07:12;99881.38;;;-0.94;100.00
70206;BME280;57593;55.896;37.396;2022-11-15T04:08:02;99875.97;;;-0.93;100.00
70206;BME280;57593;55.896;37.396;2022-11-15T04:08:51;99878.97;;;-0.79;100.00
70206;BME280;57593;55.896;37.396;2022-11-15T04:09:40;99881.28;;;-0.82;100.00
70206;BME280;57593;55.896;37.396;2022-11-15T04:10:49;99880.72;;;-0.84;100.00
70206;BME280;57593;55.896;37.396;2022-11-15T04:11:38;99872.16;;;-0.85;100.00
70206;BME280;57593;55.896;37.396;2022-11-15T04:12:29;99880.13;;;-0.69;100.00
70206;BME280;57593;55.896;37.396;2022-11-15T04:13:21;99870.44;;;-0.52;100.00
70206;BME280;57593;55.896;37.396;2022-11-15T04:14:10;99881.13;;;-0.48;100.00
70206;BME280;57593;55.896;37.396;2022-11-15T04:15:07;99874.69;;;-0.46;100.00
70206;BME280;57593;55.896;37.396;2022-11-15T04:15:57;99878.38;;;-0.64;100.00
70206;BME280;57593;55.896;37.396;2022-11-15T04:16:46;99878.56;;;-0.70;100.00
70206;BME280;57593;55.896;37.396;2022-11-15T04:18:02;99876.56;;;-0.63;100.00
70206;BME280;57593;55.896;37.396;2022-11-15T04:18:51;99875.34;;;-0.56;100.00
70206;BME280;57593;55.896;37.396;2022-11-15T04:20:00;99873.53;;;-0.55;100.00
70206;BME280;57593;55.896;37.396;2022-11-15T04:21:08;99880.53;;;-0.56;100.00
70206;BME280;57593;55.896;37.396;2022-11-15T04:22:16;99881.63;;;-0.74;100.00
70206;BME280;57593;55.896;37.396;2022-11-15T04:23:24;99876.91;;;-0.77;100.00
70206;BME280;57593;55.896;37.396;2022-11-15T04:24:32;99877.06;;;-0.66;100.00
70206;BME280;57593;55.896;37.396;2022-11-15T04:25:21;99873.44;;;-0.65;100.00
70206;BME280;57593;55.896;37.396;2022-11-15T04:26:13;99871.38;;;-0.63;100.00
70206;BME280;57593;55.896;37.396;2022-11-15T04:27:04;99868.84;;;-0.58;100.00
70206;BME280;57593;55.896;37.396;2022-11-15T04:27:53;99877.22;;;-0.51;100.00
70206;BME280;57593;55.896;37.396;2022-11-15T04:28:42;99869.72;;;-0.47;100.00
70206;BME280;57593;55.896;37.396;2022-11-15T04:29:50;99870.97;;;-0.77;100.00
70206;BME280;57593;55.896;37.396;2022-11-15T04:30:39;99871.91;;;-0.83;100.00
70206;BME280;57593;55.896;37.396;2022-11-15T04:31:29;99877.09;;;-0.83;100.00
70206;BME280;57593;55.896;37.396;2022-11-15T04:32:18;99876.25;;;-0.89;100.00
70206;BME280;57593;55.896;37.396;2022-11-15T04:33:08;99876.25;;;-0.89;100.00
70206;BME280;57593;55.896;37.396;2022-11-15T04:33:57;99869.31;;;-0.83;100.00
70206;BME280;57593;55.896;37.396;2022-11-15T04:34:46;99868.13;;;-0.76;100.00
70206;BME280;57593;55.896;37.396;2022-11-15T04:35:35;99863.84;;;-0.65;100.00
70206;BME280;57593;55.896;37.396;2022-11-15T04:36:25;99862.75;;;-0.91;100.00
70206;BME280;57593;55.896;37.396;2022-11-15T04:37:33;99853.56;;;-0.77;100.00
70206;BME280;57593;55.896;37.396;2022-11-15T04:38:22;99854.66;;;-0.73;100.00
70206;BME280;57593;55.896;37.396;2022-11-15T04:39:11;99857.78;;;-0.70;100.00
70206;BME280;57593;55.896;37.396;2022-11-15T04:40:01;99864.38;;;-0.63;100.00
70206;BME280;57593;55.896;37.396;2022-11-15T04:40:50;99851.88;;;-0.66;100.00
70206;BME280;57593;55.896;37.396;2022-11-15T04:41:39;99858.22;;;-0.57;100.00
70206;BME280;57593;55.896;37.396;2022-11-15T04:42:28;99855.03;;;-0.64;100.00
70206;BME280;57593;55.896;37.396;2022-11-15T04:43:18;99849.84;;;-0.64;100.00
70206;BME280;57593;55.896;37.396;2022-11-15T04:44:07;99853.59;;;-0.55;100.00
70206;BME280;57593;55.896;37.396;2022-11-15T04:44:56;99852.50;;;-0.59;100.00
70206;BME280;57593;55.896;37.396;2022-11-15T04:45:45;99855.28;;;-0.65;100.00
70206;BME280;57593;55.896;37.396;2022-11-15T04:46:35;99851.75;;;-0.54;100.00
70206;BME280;57593;55.896;37.396;2022-11-15T04:47:24;99854.66;;;-0.73;100.00
70206;BME280;57593;55.896;37.396;2022-11-15T04:48:13;99858.03;;;-0.72;100.00
70206;BME280;57593;55.896;37.396;2022-11-15T04:49:02;99860.53;;;-0.82;100.00
70206;BME280;57593;55.896;37.396;2022-11-15T04:49:52;99859.31;;;-0.75;100.00
70206;BME280;57593;55.896;37.396;2022-11-15T04:50:41;99867.50;;;-0.83;100.00
70206;BME280;57593;55.896;37.396;2022-11-15T04:51:30;99855.16;;;-0.76;100.00
70206;BME280;57593;55.896;37.396;2022-11-15T04:52:19;99860.69;;;-0.89;100.00
70206;BME280;57593;55.896;37.396;2022-11-15T04:53:09;99850.88;;;-0.87;100.00
70206;BME280;57593;55.896;37.396;2022-11-15T04:53:58;99855.19;;;-0.70;100.00
70206;BME280;57593;55.896;37.396;2022-11-15T04:54:47;99852.06;;;-0.73;100.00
70206;BME280;57593;55.896;37.396;2022-11-15T04:55:36;99858.53;;;-0.75;100.00
70206;BME280;57593;55.896;37.396;2022-11-15T04:56:25;99847.41;;;-0.70;100.00